Time;durP1;ratioP1;P1;durP2;ratioP2;P2;SDS_P1;SDS_P2;PMS_P1;PMS_P2;Temp;Humidity;BMP_temperature;BMP_pressure;BME280_temperature;BME280_humidity;BME280_pressure;Samples;Min_cycle;Max_cycle;Signal;HPM_P1;HPM_P2
2023/06/09 00:00:57;;;;;;;2.25;1.88;;;;;;;;;;5018762;28;20021;-76
2023/06/09 00:03:23;;;;;;;2.40;1.70;;;;;;;;;;5023207;28;20120;-77
2023/06/09 00:05:49;;;;;;;3.03;1.80;;;;;;;;;;5018267;28;20085;-77
2023/06/09 00:08:15;;;;;;;3.67;2.17;;;;;;;;;;5021248;28;20481;-77
2023/06/09 00:10:42;;;;;;;2.13;1.85;;;;;;;;;;5017605;28;20064;-77
2023/06/09 00:13:09;;;;;;;3.60;1.98;;;;;;;;;;5016441;28;20596;-76
2023/06/09 00:15:35;;;;;;;2.10;1.85;;;;;;;;;;5017017;28;20034;-76
2023/06/09 00:18:02;;;;;;;2.65;1.90;;;;;;;;;;5017833;28;20076;-77
2023/06/09 00:20:33;;;;;;;4.47;1.85;;;;;;;;;;5016177;28;20036;-77
2023/06/09 00:22:59;;;;;;;2.33;2.08;;;;;;;;;;5023999;28;20813;-77
2023/06/09 00:25:25;;;;;;;3.33;1.75;;;;;;;;;;5014352;28;20037;-76
2023/06/09 00:27:51;;;;;;;2.92;2.00;;;;;;;;;;5015431;28;20053;-77
2023/06/09 00:30:20;;;;;;;2.28;1.80;;;;;;;;;;5016867;28;21858;-77
2023/06/09 00:32:46;;;;;;;2.42;1.70;;;;;;;;;;5018892;28;20093;-77
2023/06/09 00:35:13;;;;;;;2.65;1.80;;;;;;;;;;5022071;28;20037;-77
2023/06/09 00:37:39;;;;;;;3.03;2.10;;;;;;;;;;5009603;28;20087;-77
2023/06/09 00:40:06;;;;;;;1.55;1.40;;;;;;;;;;5010160;28;20025;-75
2023/06/09 00:42:33;;;;;;;2.10;1.80;;;;;;;;;;5002844;28;20026;-76
2023/06/09 00:44:59;;;;;;;4.07;2.20;;;;;;;;;;5013949;28;21549;-76
2023/06/09 00:47:26;;;;;;;3.58;1.80;;;;;;;;;;5010228;28;20083;-75
2023/06/09 00:49:52;;;;;;;2.85;1.92;;;;;;;;;;5007531;28;20063;-76
2023/06/09 00:52:18;;;;;;;2.95;2.17;;;;;;;;;;5007729;28;20151;-77
2023/06/09 00:54:44;;;;;;;2.95;2.20;;;;;;;;;;5006364;28;20083;-76
2023/06/09 00:57:11;;;;;;;3.13;1.70;;;;;;;;;;5004664;28;20056;-76
2023/06/09 00:59:37;;;;;;;1.83;1.42;;;;;;;;;;5004502;28;20160;-76
2023/06/09 01:02:04;;;;;;;1.65;1.33;;;;;;;;;;5012738;28;20048;-76
2023/06/09 01:04:32;;;;;;;2.22;1.88;;;;;;;;;;5013686;28;20029;-76
2023/06/09 01:07:00;;;;;;;2.50;1.73;;;;;;;;;;5003701;28;20032;-76
2023/06/09 01:09:30;;;;;;;2.70;2.00;;;;;;;;;;5009676;28;20100;-76
2023/06/09 01:12:20;;;;;;;2.22;1.60;;;;;;;;;;5020268;28;20030;-76
2023/06/09 01:14:48;;;;;;;3.85;1.90;;;;;;;;;;5004571;28;20037;-76
2023/06/09 01:17:18;;;;;;;2.15;1.50;;;;;;;;;;5005832;28;20029;-76
2023/06/09 01:19:50;;;;;;;2.35;1.70;;;;;;;;;;5011845;28;20046;-76
2023/06/09 01:22:38;;;;;;;1.95;1.77;;;;;;;;;;5023020;28;20044;-76
2023/06/09 01:25:07;;;;;;;3.17;2.22;;;;;;;;;;5024598;28;20086;-76
2023/06/09 01:27:36;;;;;;;2.80;2.00;;;;;;;;;;5019994;28;20029;-76
2023/06/09 01:30:02;;;;;;;2.80;1.88;;;;;;;;;;5013464;28;20506;-77
2023/06/09 01:32:29;;;;;;;1.95;1.33;;;;;;;;;;5015876;28;20640;-76
2023/06/09 01:34:55;;;;;;;1.98;1.70;;;;;;;;;;5018089;28;20025;-76
2023/06/09 01:37:21;;;;;;;2.35;1.58;;;;;;;;;;5011158;28;20037;-76
2023/06/09 01:39:50;;;;;;;1.45;1.35;;;;;;;;;;5023150;28;20032;-76
2023/06/09 01:42:16;;;;;;;1.88;1.48;;;;;;;;;;5026571;28;20026;-76
2023/06/09 01:44:42;;;;;;;2.80;1.92;;;;;;;;;;5020214;28;20034;-77
2023/06/09 01:47:08;;;;;;;4.22;1.90;;;;;;;;;;5024458;28;20037;-76
2023/06/09 01:49:50;;;;;;;3.35;1.77;;;;;;;;;;5029243;28;20026;-76
2023/06/09 01:52:24;;;;;;;2.75;1.83;;;;;;;;;;5023634;28;20052;-76
2023/06/09 01:54:55;;;;;;;3.42;2.13;;;;;;;;;;5016785;28;20045;-76
2023/06/09 01:57:31;;;;;;;2.03;1.67;;;;;;;;;;5019594;28;20132;-76
2023/06/09 02:00:01;;;;;;;3.05;2.03;;;;;;;;;;5020222;28;20309;-76
2023/06/09 02:02:28;;;;;;;2.10;1.70;;;;;;;;;;5016513;28;20040;-76
2023/06/09 02:04:56;;;;;;;2.08;1.63;;;;;;;;;;5020574;28;20505;-77
2023/06/09 02:07:22;;;;;;;2.38;1.88;;;;;;;;;;5014473;28;20128;-76
2023/06/09 02:09:48;;;;;;;2.75;1.65;;;;;;;;;;5025738;28;20022;-76
2023/06/09 02:12:14;;;;;;;1.60;1.50;;;;;;;;;;5014256;28;20529;-76
2023/06/09 02:14:42;;;;;;;3.08;1.73;;;;;;;;;;5014280;28;20051;-76
2023/06/09 02:17:12;;;;;;;2.30;1.88;;;;;;;;;;5027148;28;20017;-76
2023/06/09 02:19:38;;;;;;;3.15;2.08;;;;;;;;;;5024904;28;20053;-76
2023/06/09 02:22:08;;;;;;;2.03;1.63;;;;;;;;;;5019590;28;20484;-76
2023/06/09 02:24:34;;;;;;;3.50;2.10;;;;;;;;;;5022381;28;20085;-76
2023/06/09 02:27:01;;;;;;;2.42;1.67;;;;;;;;;;5016790;28;20076;-76
2023/06/09 02:29:28;;;;;;;2.83;1.90;;;;;;;;;;5015278;28;20431;-76
2023/06/09 02:31:55;;;;;;;2.72;1.70;;;;;;;;;;5012269;28;20155;-76
2023/06/09 02:34:22;;;;;;;3.47;2.03;;;;;;;;;;5014546;28;20029;-76
2023/06/09 02:36:49;;;;;;;1.85;1.60;;;;;;;;;;5013380;28;20097;-76
2023/06/09 02:39:15;;;;;;;4.70;1.83;;;;;;;;;;5014921;28;20026;-76
2023/06/09 02:41:41;;;;;;;3.60;1.95;;;;;;;;;;5009019;28;20111;-76
2023/06/09 02:44:07;;;;;;;2.75;1.50;;;;;;;;;;5024465;28;20026;-76
2023/06/09 02:46:35;;;;;;;2.72;2.10;;;;;;;;;;5009121;28;20508;-75
2023/06/09 02:49:01;;;;;;;2.30;1.70;;;;;;;;;;5018936;28;20033;-76
2023/06/09 02:51:27;;;;;;;2.88;1.77;;;;;;;;;;5015389;28;20030;-76
2023/06/09 02:53:52;;;;;;;3.28;1.75;;;;;;;;;;5017900;28;20033;-76
2023/06/09 02:56:18;;;;;;;2.28;1.77;;;;;;;;;;5026438;28;20124;-76
2023/06/09 02:58:46;;;;;;;3.83;2.20;;;;;;;;;;5015866;28;20018;-76
2023/06/09 03:01:17;;;;;;;3.92;2.10;;;;;;;;;;5021643;28;20552;-76
2023/06/09 03:03:44;;;;;;;3.00;1.90;;;;;;;;;;5015368;28;20469;-76
2023/06/09 03:06:13;;;;;;;2.42;1.88;;;;;;;;;;5021930;28;20037;-76
2023/06/09 03:08:39;;;;;;;3.00;1.42;;;;;;;;;;5027287;28;20112;-76
2023/06/09 03:11:05;;;;;;;3.65;2.13;;;;;;;;;;5023432;28;20416;-76
2023/06/09 03:13:31;;;;;;;2.55;1.60;;;;;;;;;;5013064;28;20037;-76
2023/06/09 03:15:57;;;;;;;2.15;1.60;;;;;;;;;;5021860;28;20451;-76
2023/06/09 03:18:23;;;;;;;1.60;1.50;;;;;;;;;;5014074;28;20050;-76
2023/06/09 03:20:50;;;;;;;1.95;1.50;;;;;;;;;;5013779;28;20033;-76
2023/06/09 03:23:16;;;;;;;2.38;1.70;;;;;;;;;;4995843;28;20036;-76
2023/06/09 03:25:42;;;;;;;5.03;1.95;;;;;;;;;;5018246;28;20045;-76
2023/06/09 03:28:08;;;;;;;2.28;1.83;;;;;;;;;;5020547;28;20037;-75
2023/06/09 03:30:34;;;;;;;2.33;1.80;;;;;;;;;;5013784;28;20559;-76
2023/06/09 03:33:00;;;;;;;3.63;1.95;;;;;;;;;;5018911;28;20108;-75
2023/06/09 03:35:26;;;;;;;4.63;1.80;;;;;;;;;;5017351;28;20084;-75
2023/06/09 03:37:52;;;;;;;2.50;1.80;;;;;;;;;;5018964;28;20037;-75
2023/06/09 03:40:18;;;;;;;3.15;1.70;;;;;;;;;;5017617;28;20050;-75
2023/06/09 03:42:44;;;;;;;2.53;2.28;;;;;;;;;;5023131;28;20064;-76
2023/06/09 03:45:11;;;;;;;2.20;1.73;;;;;;;;;;5016938;28;20026;-75
2023/06/09 03:47:36;;;;;;;4.30;2.40;;;;;;;;;;5013773;28;20021;-75
2023/06/09 03:50:02;;;;;;;2.80;1.98;;;;;;;;;;5017760;28;20557;-76
2023/06/09 03:52:28;;;;;;;2.45;1.50;;;;;;;;;;5028521;28;20037;-75
2023/06/09 03:54:55;;;;;;;2.40;1.70;;;;;;;;;;5030984;28;20029;-75
2023/06/09 03:57:20;;;;;;;3.13;1.83;;;;;;;;;;5023940;28;20032;-75
2023/06/09 03:59:47;;;;;;;2.78;1.88;;;;;;;;;;5019267;28;20030;-75
2023/06/09 04:02:12;;;;;;;1.95;1.75;;;;;;;;;;5029099;28;20030;-75
2023/06/09 04:04:39;;;;;;;1.75;1.63;;;;;;;;;;5031168;28;20057;-75
2023/06/09 04:07:05;;;;;;;4.28;1.50;;;;;;;;;;5018836;28;20392;-75
2023/06/09 04:09:34;;;;;;;2.20;1.50;;;;;;;;;;5023976;28;20033;-75
2023/06/09 04:12:00;;;;;;;2.70;1.60;;;;;;;;;;5031062;28;20102;-75
2023/06/09 04:14:26;;;;;;;1.83;1.60;;;;;;;;;;5019182;28;20028;-76
2023/06/09 04:16:52;;;;;;;2.30;1.45;;;;;;;;;;5015384;28;20116;-76
2023/06/09 04:19:18;;;;;;;2.42;1.77;;;;;;;;;;5021362;28;20526;-76
2023/06/09 04:21:45;;;;;;;2.33;1.50;;;;;;;;;;4993436;28;20030;-76
2023/06/09 04:24:11;;;;;;;1.60;1.50;;;;;;;;;;5014817;28;20026;-77
2023/06/09 04:26:38;;;;;;;2.50;1.60;;;;;;;;;;5013646;28;20017;-76
2023/06/09 04:29:05;;;;;;;2.83;1.95;;;;;;;;;;5030617;28;20029;-76
2023/06/09 04:31:33;;;;;;;2.00;1.50;;;;;;;;;;5015000;28;20136;-76
2023/06/09 04:34:05;;;;;;;2.63;1.65;;;;;;;;;;5014419;28;20652;-76
2023/06/09 04:36:32;;;;;;;2.67;1.70;;;;;;;;;;5012082;28;20113;-77
2023/06/09 04:38:59;;;;;;;2.05;1.63;;;;;;;;;;5014841;28;20037;-78
2023/06/09 04:41:26;;;;;;;2.30;2.05;;;;;;;;;;5018236;28;20377;-75
2023/06/09 04:43:53;;;;;;;2.25;1.65;;;;;;;;;;5018606;28;20186;-77
2023/06/09 04:46:24;;;;;;;1.85;1.33;;;;;;;;;;5027244;28;20381;-78
2023/06/09 04:48:51;;;;;;;2.50;1.58;;;;;;;;;;5020473;28;20029;-82
2023/06/09 04:51:19;;;;;;;2.15;1.58;;;;;;;;;;5014023;28;20053;-83
2023/06/09 04:53:47;;;;;;;1.88;1.27;;;;;;;;;;5017835;28;20116;-81
2023/06/09 04:56:16;;;;;;;1.55;1.45;;;;;;;;;;5021160;28;20088;-80
2023/06/09 04:58:42;;;;;;;4.47;1.90;;;;;;;;;;5025841;28;20111;-81
2023/06/09 05:01:08;;;;;;;1.60;1.45;;;;;;;;;;5017055;28;20841;-81
2023/06/09 05:03:34;;;;;;;2.30;1.67;;;;;;;;;;5014091;28;20026;-78
2023/06/09 05:06:00;;;;;;;3.00;1.58;;;;;;;;;;5021852;28;20033;-78
2023/06/09 05:08:26;;;;;;;1.88;1.50;;;;;;;;;;5018737;28;20026;-75
2023/06/09 05:10:52;;;;;;;3.22;1.67;;;;;;;;;;5018350;28;20025;-72
2023/06/09 05:13:18;;;;;;;3.22;1.98;;;;;;;;;;5022716;28;20092;-72
2023/06/09 05:15:45;;;;;;;2.33;1.80;;;;;;;;;;5011397;28;20542;-74
2023/06/09 05:18:11;;;;;;;2.45;1.75;;;;;;;;;;5020652;28;20116;-75
2023/06/09 05:20:37;;;;;;;2.95;1.55;;;;;;;;;;5037455;28;20025;-73
2023/06/09 05:23:03;;;;;;;2.95;1.58;;;;;;;;;;5013177;28;20050;-74
2023/06/09 05:25:29;;;;;;;2.13;1.70;;;;;;;;;;5018632;28;20501;-74
2023/06/09 05:27:55;;;;;;;3.42;1.60;;;;;;;;;;5022323;28;20017;-74
2023/06/09 05:30:21;;;;;;;1.92;1.50;;;;;;;;;;5019136;28;20030;-78
2023/06/09 05:32:47;;;;;;;1.55;1.40;;;;;;;;;;5010007;28;20025;-76
2023/06/09 05:35:16;;;;;;;1.70;1.42;;;;;;;;;;5017773;28;20045;-77
2023/06/09 05:37:52;;;;;;;2.60;1.80;;;;;;;;;;5012645;28;20037;-74
2023/06/09 05:40:18;;;;;;;2.72;1.58;;;;;;;;;;5002966;28;20079;-75
2023/06/09 05:42:44;;;;;;;1.73;1.38;;;;;;;;;;5010884;28;20034;-77
2023/06/09 05:45:10;;;;;;;2.63;1.63;;;;;;;;;;5024808;28;20033;-80
2023/06/09 05:47:36;;;;;;;1.55;1.23;;;;;;;;;;5013788;28;20037;-76
2023/06/09 05:50:02;;;;;;;1.98;1.38;;;;;;;;;;5023378;28;20091;-76
2023/06/09 05:52:28;;;;;;;1.30;1.20;;;;;;;;;;5027610;28;20025;-76
2023/06/09 05:54:55;;;;;;;1.92;1.70;;;;;;;;;;5029476;28;20546;-76
2023/06/09 05:57:21;;;;;;;2.10;1.48;;;;;;;;;;5025867;28;20029;-76
2023/06/09 05:59:46;;;;;;;2.83;1.58;;;;;;;;;;5021149;28;20032;-75
2023/06/09 06:02:13;;;;;;;2.70;1.75;;;;;;;;;;5019611;28;20029;-77
2023/06/09 06:04:39;;;;;;;1.63;1.40;;;;;;;;;;5013873;28;20909;-76
2023/06/09 06:07:06;;;;;;;1.77;1.23;;;;;;;;;;5020035;28;20021;-76
2023/06/09 06:09:31;;;;;;;1.33;1.10;;;;;;;;;;5015019;28;20072;-76
2023/06/09 06:11:57;;;;;;;2.00;1.55;;;;;;;;;;5024227;28;20389;-76
2023/06/09 06:14:26;;;;;;;1.67;1.40;;;;;;;;;;5012414;28;20511;-78
2023/06/09 06:16:52;;;;;;;2.15;1.58;;;;;;;;;;5019910;28;20448;-79
2023/06/09 06:19:18;;;;;;;3.28;1.60;;;;;;;;;;5013431;28;20116;-76
2023/06/09 06:21:44;;;;;;;1.45;1.33;;;;;;;;;;5023728;28;20025;-75
2023/06/09 06:24:11;;;;;;;4.53;1.45;;;;;;;;;;5026363;28;20028;-75
2023/06/09 06:26:37;;;;;;;1.70;1.27;;;;;;;;;;5026081;28;20101;-76
2023/06/09 06:29:03;;;;;;;1.98;1.33;;;;;;;;;;5013510;28;20080;-76
2023/06/09 06:31:32;;;;;;;1.50;1.20;;;;;;;;;;5014511;28;20068;-75
2023/06/09 06:33:59;;;;;;;2.28;1.30;;;;;;;;;;5023414;28;20128;-75
2023/06/09 06:36:26;;;;;;;1.73;1.40;;;;;;;;;;5008158;28;20069;-76
2023/06/09 06:38:52;;;;;;;1.80;1.27;;;;;;;;;;5013527;28;20032;-76
2023/06/09 06:41:18;;;;;;;2.35;1.20;;;;;;;;;;5025442;28;20137;-77
2023/06/09 06:43:44;;;;;;;1.60;1.20;;;;;;;;;;5017142;28;20018;-77
2023/06/09 06:46:11;;;;;;;1.58;1.48;;;;;;;;;;5026606;28;20021;-76
2023/06/09 06:48:39;;;;;;;1.83;1.50;;;;;;;;;;5011429;28;20486;-75
2023/06/09 06:51:07;;;;;;;1.83;1.13;;;;;;;;;;5005079;28;20068;-75
2023/06/09 06:53:34;;;;;;;1.98;1.67;;;;;;;;;;5006986;28;20084;-75
2023/06/09 06:56:00;;;;;;;1.52;1.23;;;;;;;;;;5007222;28;20048;-76
2023/06/09 06:58:28;;;;;;;2.33;1.35;;;;;;;;;;5023452;28;20025;-75
2023/06/09 07:00:55;;;;;;;1.88;1.40;;;;;;;;;;5027439;28;20036;-75
2023/06/09 07:03:20;;;;;;;1.55;1.20;;;;;;;;;;5011352;28;20753;-75
2023/06/09 07:05:46;;;;;;;2.10;1.58;;;;;;;;;;5008734;28;20137;-75
2023/06/09 07:08:13;;;;;;;1.67;1.15;;;;;;;;;;5007968;28;20444;-75
2023/06/09 07:10:39;;;;;;;1.67;1.38;;;;;;;;;;5010975;28;20017;-75
2023/06/09 07:13:05;;;;;;;1.80;1.35;;;;;;;;;;5015443;28;20022;-75
2023/06/09 07:15:31;;;;;;;4.05;1.77;;;;;;;;;;5024078;28;20022;-75
2023/06/09 07:17:57;;;;;;;1.88;1.35;;;;;;;;;;5030026;28;20013;-75
2023/06/09 07:20:23;;;;;;;3.17;1.55;;;;;;;;;;5031070;28;20491;-76
2023/06/09 07:22:52;;;;;;;1.80;1.50;;;;;;;;;;5031249;28;20443;-73
2023/06/09 07:25:18;;;;;;;1.25;1.15;;;;;;;;;;5026445;28;20083;-75
2023/06/09 07:27:44;;;;;;;1.15;0.93;;;;;;;;;;5031230;28;20109;-76
2023/06/09 07:30:10;;;;;;;1.75;1.30;;;;;;;;;;5028551;28;20033;-75
2023/06/09 07:32:36;;;;;;;1.55;1.08;;;;;;;;;;5030454;28;20620;-75
2023/06/09 07:35:02;;;;;;;1.40;1.27;;;;;;;;;;5029272;28;20388;-75
2023/06/09 07:37:28;;;;;;;1.33;1.20;;;;;;;;;;5018093;28;20037;-75
2023/06/09 07:39:54;;;;;;;2.33;1.30;;;;;;;;;;5026265;28;20033;-75
2023/06/09 07:42:20;;;;;;;1.65;1.35;;;;;;;;;;5013445;28;20025;-75
2023/06/09 07:44:46;;;;;;;1.23;1.10;;;;;;;;;;5011687;28;20089;-75
2023/06/09 07:47:16;;;;;;;1.45;1.15;;;;;;;;;;5030566;28;20026;-75
2023/06/09 07:49:42;;;;;;;3.80;1.75;;;;;;;;;;5028319;28;20610;-75
2023/06/09 07:52:09;;;;;;;1.77;1.35;;;;;;;;;;5029000;28;20030;-75
2023/06/09 07:54:35;;;;;;;2.65;1.63;;;;;;;;;;5029165;28;20033;-75
2023/06/09 07:57:01;;;;;;;1.73;1.42;;;;;;;;;;5023550;28;20029;-75
2023/06/09 07:59:27;;;;;;;2.10;1.27;;;;;;;;;;5030525;28;20049;-75
2023/06/09 08:01:56;;;;;;;1.67;1.38;;;;;;;;;;5019356;28;20076;-75
2023/06/09 08:04:22;;;;;;;2.88;1.60;;;;;;;;;;5015875;28;20026;-75
2023/06/09 08:06:48;;;;;;;1.50;1.05;;;;;;;;;;5010390;28;20020;-73
2023/06/09 08:09:14;;;;;;;1.92;1.30;;;;;;;;;;5011387;28;20029;-75
2023/06/09 08:11:40;;;;;;;1.58;1.30;;;;;;;;;;5014566;28;20481;-75
2023/06/09 08:14:07;;;;;;;1.83;1.30;;;;;;;;;;5017179;28;20064;-79
2023/06/09 08:16:33;;;;;;;2.00;1.30;;;;;;;;;;5017124;28;20030;-75
2023/06/09 08:18:59;;;;;;;1.58;1.10;;;;;;;;;;5024171;28;20065;-75
2023/06/09 08:21:25;;;;;;;1.83;1.48;;;;;;;;;;5028992;28;20026;-75
2023/06/09 08:23:52;;;;;;;4.75;1.20;;;;;;;;;;5025450;28;20022;-74
2023/06/09 08:26:18;;;;;;;1.30;1.10;;;;;;;;;;5015089;28;20044;-75
2023/06/09 08:28:44;;;;;;;1.80;1.05;;;;;;;;;;5022050;28;20041;-74
2023/06/09 08:31:10;;;;;;;1.13;0.90;;;;;;;;;;5029324;28;20026;-73
2023/06/09 08:33:36;;;;;;;2.90;1.10;;;;;;;;;;5035372;28;20551;-73
2023/06/09 08:36:03;;;;;;;2.33;1.13;;;;;;;;;;5028929;28;20485;-73
2023/06/09 08:38:31;;;;;;;0.90;0.90;;;;;;;;;;5024667;28;20033;-73
2023/06/09 08:41:00;;;;;;;1.63;1.30;;;;;;;;;;5014725;28;20030;-74
2023/06/09 08:43:26;;;;;;;1.55;1.10;;;;;;;;;;5021946;28;20021;-74
2023/06/09 08:45:53;;;;;;;1.42;1.00;;;;;;;;;;5016693;28;20394;-74
2023/06/09 08:48:19;;;;;;;1.33;1.23;;;;;;;;;;5019672;28;20044;-74
2023/06/09 08:50:46;;;;;;;2.03;1.30;;;;;;;;;;5028996;28;20116;-74
2023/06/09 08:53:13;;;;;;;1.60;1.17;;;;;;;;;;5030636;28;20025;-73
2023/06/09 08:55:39;;;;;;;2.60;0.98;;;;;;;;;;5028495;28;20032;-73
2023/06/09 08:58:05;;;;;;;1.98;1.30;;;;;;;;;;5029270;28;20036;-73
2023/06/09 09:00:31;;;;;;;2.30;1.20;;;;;;;;;;5032138;28;20021;-73
2023/06/09 09:02:57;;;;;;;3.85;1.30;;;;;;;;;;5031118;28;20025;-74
2023/06/09 09:05:23;;;;;;;2.08;1.20;;;;;;;;;;5035341;28;20160;-74
2023/06/09 09:07:49;;;;;;;1.30;1.20;;;;;;;;;;5028967;28;20675;-74
2023/06/09 09:10:16;;;;;;;3.80;1.25;;;;;;;;;;5026932;28;20566;-73
2023/06/09 09:12:49;;;;;;;1.52;1.10;;;;;;;;;;5033038;28;20585;-74
2023/06/09 09:15:15;;;;;;;2.17;0.95;;;;;;;;;;5028160;28;20029;-74
2023/06/09 09:17:41;;;;;;;1.20;1.10;;;;;;;;;;5030094;28;20538;-73
2023/06/09 09:20:07;;;;;;;5.40;1.10;;;;;;;;;;5025008;28;20049;-73
2023/06/09 09:22:43;;;;;;;1.27;1.05;;;;;;;;;;5021499;28;20025;-74
2023/06/09 09:25:09;;;;;;;1.23;0.98;;;;;;;;;;5034281;28;20108;-74
2023/06/09 09:27:38;;;;;;;1.88;1.10;;;;;;;;;;5031808;28;20021;-74
2023/06/09 09:30:04;;;;;;;2.22;1.20;;;;;;;;;;5035692;28;20029;-74
2023/06/09 09:32:30;;;;;;;4.97;2.00;;;;;;;;;;5024024;28;20435;-74
2023/06/09 09:34:56;;;;;;;4.70;1.20;;;;;;;;;;5032337;28;20045;-75
2023/06/09 09:37:25;;;;;;;2.13;1.33;;;;;;;;;;5032570;28;20303;-74
2023/06/09 09:39:52;;;;;;;1.58;1.30;;;;;;;;;;5030771;28;20048;-74
2023/06/09 09:42:18;;;;;;;2.53;1.63;;;;;;;;;;5032343;28;20018;-75
2023/06/09 09:44:51;;;;;;;4.40;1.40;;;;;;;;;;5026863;28;20026;-75
2023/06/09 09:47:18;;;;;;;1.63;1.05;;;;;;;;;;5016120;28;20023;-74
2023/06/09 09:49:54;;;;;;;1.35;0.93;;;;;;;;;;5023607;28;20022;-76
2023/06/09 09:52:24;;;;;;;1.88;1.50;;;;;;;;;;5019575;28;20028;-76
2023/06/09 09:54:51;;;;;;;1.30;0.98;;;;;;;;;;5029112;28;20120;-77
2023/06/09 09:57:17;;;;;;;1.08;0.98;;;;;;;;;;5021792;28;20084;-76
2023/06/09 09:59:43;;;;;;;2.22;1.13;;;;;;;;;;5015320;28;20084;-77
2023/06/09 10:02:12;;;;;;;5.07;1.50;;;;;;;;;;5008726;28;20491;-78
2023/06/09 10:04:38;;;;;;;2.50;1.55;;;;;;;;;;5021571;28;20087;-78
2023/06/09 10:07:04;;;;;;;3.28;1.20;;;;;;;;;;5015940;28;20030;-77
2023/06/09 10:09:30;;;;;;;1.63;1.27;;;;;;;;;;5023171;28;20037;-76
2023/06/09 10:11:56;;;;;;;2.00;1.42;;;;;;;;;;5027063;28;20076;-76
2023/06/09 10:14:22;;;;;;;1.83;1.30;;;;;;;;;;5017872;28;20056;-76
2023/06/09 10:16:51;;;;;;;1.48;1.20;;;;;;;;;;5020694;28;20056;-81
2023/06/09 10:19:18;;;;;;;4.05;1.38;;;;;;;;;;5022157;28;20076;-78
2023/06/09 10:21:46;;;;;;;4.22;1.50;;;;;;;;;;5020540;28;20112;-80
2023/06/09 10:24:18;;;;;;;1.48;1.20;;;;;;;;;;5014039;28;20030;-81
2023/06/09 10:26:45;;;;;;;1.65;0.98;;;;;;;;;;5010539;28;20613;-82
2023/06/09 10:29:12;;;;;;;1.23;1.10;;;;;;;;;;5008556;28;20037;-81
2023/06/09 10:31:52;;;;;;;3.88;1.20;;;;;;;;;;5011780;28;20388;-83
2023/06/09 10:34:18;;;;;;;3.67;1.30;;;;;;;;;;5007608;28;20037;-83
2023/06/09 10:36:45;;;;;;;3.30;1.73;;;;;;;;;;5015075;28;20288;-83
2023/06/09 10:39:15;;;;;;;1.75;1.00;;;;;;;;;;5019128;28;20113;-82
2023/06/09 10:41:43;;;;;;;1.90;1.70;;;;;;;;;;5012443;28;20672;-83
2023/06/09 10:44:18;;;;;;;2.05;1.23;;;;;;;;;;5025810;28;20030;-82
2023/06/09 10:46:45;;;;;;;2.22;1.00;;;;;;;;;;5024488;28;20030;-82
2023/06/09 10:49:29;;;;;;;1.20;1.10;;;;;;;;;;5026500;28;20030;-83
2023/06/09 10:51:55;;;;;;;1.38;1.20;;;;;;;;;;5023970;28;20017;-82
2023/06/09 10:54:24;;;;;;;1.65;1.05;;;;;;;;;;5017645;28;20560;-83
2023/06/09 10:56:52;;;;;;;3.25;1.13;;;;;;;;;;5024450;28;20022;-82
2023/06/09 10:59:25;;;;;;;1.45;1.30;;;;;;;;;;5025642;28;20075;-83
2023/06/09 11:02:00;;;;;;;2.50;1.20;;;;;;;;;;5008295;28;20026;-83
2023/06/09 11:04:43;;;;;;;1.63;1.20;;;;;;;;;;5015185;28;20033;-83
2023/06/09 11:07:15;;;;;;;1.63;1.42;;;;;;;;;;5007842;28;20396;-82
2023/06/09 11:10:01;;;;;;;1.60;1.13;;;;;;;;;;5018490;28;20037;-81
2023/06/09 11:12:27;;;;;;;2.42;1.55;;;;;;;;;;5013879;28;20165;-83
2023/06/09 11:14:58;;;;;;;1.42;1.00;;;;;;;;;;5022799;28;20099;-82
2023/06/09 11:17:36;;;;;;;1.23;1.10;;;;;;;;;;5009691;28;20025;-82
2023/06/09 11:20:11;;;;;;;1.40;1.15;;;;;;;;;;5007879;28;20062;-82
2023/06/09 11:22:51;;;;;;;1.35;1.15;;;;;;;;;;5014142;28;20024;-82
2023/06/09 11:25:20;;;;;;;1.73;1.33;;;;;;;;;;5025723;28;20036;-82
2023/06/09 11:27:50;;;;;;;2.00;1.20;;;;;;;;;;5021800;28;20508;-84
2023/06/09 11:30:20;;;;;;;1.75;1.10;;;;;;;;;;5007909;28;20121;-81
2023/06/09 11:32:47;;;;;;;2.80;1.55;;;;;;;;;;5011479;28;20084;-83
2023/06/09 11:35:36;;;;;;;1.85;1.42;;;;;;;;;;5025304;28;20478;-82
2023/06/09 11:38:03;;;;;;;2.38;1.55;;;;;;;;;;5027671;28;20428;-82
2023/06/09 11:40:37;;;;;;;1.38;1.20;;;;;;;;;;5023164;28;20104;-82
2023/06/09 11:43:09;;;;;;;2.22;1.15;;;;;;;;;;5005464;28;20094;-83
2023/06/09 11:45:38;;;;;;;1.10;1.00;;;;;;;;;;5007886;28;20401;-82
2023/06/09 11:48:06;;;;;;;1.52;1.05;;;;;;;;;;5009391;28;20038;-82
2023/06/09 11:50:43;;;;;;;1.80;1.33;;;;;;;;;;5007739;28;20026;-83
2023/06/09 11:53:13;;;;;;;1.85;1.27;;;;;;;;;;5010103;28;20528;-83
2023/06/09 11:55:38;;;;;;;2.03;1.08;;;;;;;;;;5027392;28;20026;-83
2023/06/09 11:58:08;;;;;;;4.45;1.40;;;;;;;;;;5028831;28;20078;-83
2023/06/09 12:00:34;;;;;;;2.25;1.13;;;;;;;;;;5030559;28;20017;-83
2023/06/09 12:03:21;;;;;;;1.35;1.25;;;;;;;;;;5025300;28;20506;-83
2023/06/09 12:05:50;;;;;;;1.50;1.27;;;;;;;;;;5014978;28;20081;-82
2023/06/09 12:08:18;;;;;;;3.30;1.60;;;;;;;;;;5017919;28;20107;-82
2023/06/09 12:10:44;;;;;;;1.98;1.40;;;;;;;;;;5030440;28;20131;-83
2023/06/09 12:13:10;;;;;;;4.05;1.25;;;;;;;;;;5028874;28;20025;-82
2023/06/09 12:15:36;;;;;;;2.58;1.45;;;;;;;;;;5018618;28;20505;-84
2023/06/09 12:18:04;;;;;;;2.00;1.60;;;;;;;;;;5025800;28;20520;-82
2023/06/09 12:20:33;;;;;;;3.08;1.40;;;;;;;;;;5030288;28;20060;-83
2023/06/09 12:23:02;;;;;;;1.50;1.27;;;;;;;;;;5030432;28;20037;-83
2023/06/09 12:25:29;;;;;;;1.58;1.35;;;;;;;;;;5030744;28;20032;-82
2023/06/09 12:27:56;;;;;;;1.52;1.20;;;;;;;;;;5021117;28;20075;-83
2023/06/09 12:30:54;;;;;;;2.05;1.30;;;;;;;;;;5012985;28;20387;-83
2023/06/09 12:33:20;;;;;;;1.73;1.10;;;;;;;;;;5005594;28;20121;-83
2023/06/09 12:35:48;;;;;;;1.45;1.20;;;;;;;;;;5029856;28;20029;-82
2023/06/09 12:38:15;;;;;;;1.55;1.23;;;;;;;;;;5023359;28;20037;-82
2023/06/09 12:40:59;;;;;;;1.35;1.25;;;;;;;;;;5023327;28;20496;-83
2023/06/09 12:43:26;;;;;;;1.30;1.20;;;;;;;;;;5000441;28;20075;-82
2023/06/09 12:45:56;;;;;;;2.00;1.40;;;;;;;;;;5024381;28;20030;-82
2023/06/09 12:48:22;;;;;;;1.17;1.05;;;;;;;;;;5005963;28;20022;-82
2023/06/09 12:50:55;;;;;;;1.73;1.30;;;;;;;;;;5011067;28;20056;-82
2023/06/09 12:53:21;;;;;;;1.95;1.33;;;;;;;;;;5020790;28;20710;-82
2023/06/09 12:55:51;;;;;;;1.88;1.38;;;;;;;;;;5017666;28;20021;-82
2023/06/09 12:58:18;;;;;;;1.40;1.30;;;;;;;;;;5020156;28;20497;-82
2023/06/09 13:00:43;;;;;;;1.67;1.20;;;;;;;;;;5029673;28;20030;-82
2023/06/09 13:03:11;;;;;;;1.48;1.38;;;;;;;;;;5010800;28;20040;-81
2023/06/09 13:05:37;;;;;;;1.38;1.25;;;;;;;;;;5018937;28;20034;-82
2023/06/09 13:08:04;;;;;;;1.58;1.20;;;;;;;;;;5019043;28;20124;-81
2023/06/09 13:10:30;;;;;;;1.05;0.95;;;;;;;;;;5029393;28;20071;-83
2023/06/09 13:12:57;;;;;;;1.65;1.30;;;;;;;;;;5028596;28;20029;-81
2023/06/09 13:15:26;;;;;;;1.83;1.20;;;;;;;;;;5011635;28;20042;-77
2023/06/09 13:17:52;;;;;;;1.55;1.20;;;;;;;;;;5021492;28;20053;-79
2023/06/09 13:20:19;;;;;;;1.38;1.05;;;;;;;;;;5026642;28;20030;-77
2023/06/09 13:22:45;;;;;;;1.23;1.02;;;;;;;;;;5029097;28;20129;-77
2023/06/09 13:25:12;;;;;;;1.90;1.60;;;;;;;;;;5022810;28;20017;-76
2023/06/09 13:27:40;;;;;;;2.20;0.90;;;;;;;;;;5018075;28;20084;-78
2023/06/09 13:30:10;;;;;;;1.67;1.05;;;;;;;;;;5014964;28;20034;-77
2023/06/09 13:32:37;;;;;;;1.40;1.30;;;;;;;;;;5015329;28;20112;-82
2023/06/09 13:35:03;;;;;;;1.45;1.30;;;;;;;;;;5013677;28;20099;-78
2023/06/09 13:37:29;;;;;;;1.00;0.93;;;;;;;;;;5013235;28;20041;-77
2023/06/09 13:39:55;;;;;;;1.95;1.10;;;;;;;;;;5020821;28;20033;-78
2023/06/09 13:42:21;;;;;;;0.90;0.90;;;;;;;;;;5015554;28;20025;-80
2023/06/09 13:44:47;;;;;;;1.10;1.00;;;;;;;;;;5021951;28;20024;-80
2023/06/09 13:47:13;;;;;;;1.67;1.00;;;;;;;;;;5033712;28;20029;-79
2023/06/09 13:49:39;;;;;;;1.63;1.20;;;;;;;;;;5012910;28;20108;-77
2023/06/09 13:52:05;;;;;;;1.50;1.30;;;;;;;;;;5016150;28;20034;-76
2023/06/09 13:54:31;;;;;;;1.38;1.27;;;;;;;;;;5016765;28;20032;-78
2023/06/09 13:56:57;;;;;;;1.20;1.10;;;;;;;;;;5027461;28;20488;-78
2023/06/09 13:59:23;;;;;;;1.67;1.10;;;;;;;;;;5016513;28;20393;-78
2023/06/09 14:01:49;;;;;;;1.63;1.23;;;;;;;;;;5017163;28;20030;-78
2023/06/09 14:04:15;;;;;;;2.00;1.80;;;;;;;;;;5012949;28;20044;-78
2023/06/09 14:06:41;;;;;;;1.23;1.10;;;;;;;;;;5028294;28;20461;-78
2023/06/09 14:09:08;;;;;;;1.27;1.02;;;;;;;;;;5026242;28;20013;-77
2023/06/09 14:11:34;;;;;;;2.30;1.63;;;;;;;;;;5028156;28;20057;-77
2023/06/09 14:14:00;;;;;;;2.30;1.40;;;;;;;;;;5028421;28;20033;-78
2023/06/09 14:16:26;;;;;;;2.03;1.17;;;;;;;;;;5021271;28;20022;-77
2023/06/09 14:18:52;;;;;;;2.13;1.27;;;;;;;;;;5007527;28;20828;-77
2023/06/09 14:21:19;;;;;;;2.10;1.13;;;;;;;;;;5018214;28;20041;-77
2023/06/09 14:23:45;;;;;;;2.05;1.38;;;;;;;;;;5014517;28;20033;-76
2023/06/09 14:26:13;;;;;;;1.23;1.13;;;;;;;;;;5018933;28;20025;-77
2023/06/09 14:28:40;;;;;;;1.10;1.00;;;;;;;;;;5020880;28;20030;-77
2023/06/09 14:31:05;;;;;;;1.25;1.10;;;;;;;;;;5016364;28;20435;-77
2023/06/09 14:33:31;;;;;;;1.80;1.20;;;;;;;;;;5026537;28;20021;-77
2023/06/09 14:35:57;;;;;;;1.58;1.10;;;;;;;;;;5022029;28;20507;-77
2023/06/09 14:38:23;;;;;;;1.10;1.00;;;;;;;;;;5000348;28;20395;-77
2023/06/09 14:40:49;;;;;;;1.92;1.48;;;;;;;;;;5016094;28;20396;-78
2023/06/09 14:43:15;;;;;;;3.47;1.23;;;;;;;;;;5018513;28;20447;-76
2023/06/09 14:45:41;;;;;;;1.20;1.10;;;;;;;;;;5012514;28;20100;-76